createdAt,value
2023-02-17T00:01:23.901Z,96812.66
2023-02-17T00:03:51.575Z,96782.19
2023-02-17T00:06:21.073Z,96814.50
2023-02-17T00:08:48.629Z,96819.44
2023-02-17T00:11:15.588Z,96801.91
2023-02-17T00:13:42.553Z,96809.56
2023-02-17T00:16:11.837Z,96783.13
2023-02-17T00:18:38.411Z,96792.22
2023-02-17T00:21:17.541Z,96804.53
2023-02-17T00:23:45.344Z,96806.53
2023-02-17T00:26:12.059Z,96807.00
2023-02-17T00:28:38.763Z,96793.25
2023-02-17T00:31:16.889Z,96806.69
2023-02-17T00:33:43.532Z,96774.06
2023-02-17T00:36:17.704Z,96803.50
2023-02-17T00:38:45.267Z,96810.06
2023-02-17T00:41:12.058Z,96787.75
2023-02-17T00:43:38.524Z,96807.88
2023-02-17T00:46:05.861Z,96806.22
2023-02-17T00:48:33.061Z,96807.66
2023-02-17T00:50:59.535Z,96791.16
2023-02-17T00:53:26.783Z,96785.28
2023-02-17T00:55:53.220Z,96800.00
2023-02-17T00:58:19.781Z,96792.81
2023-02-17T01:00:46.219Z,96786.28
2023-02-17T01:03:12.667Z,96798.09
2023-02-17T01:05:43.662Z,96796.50
2023-02-17T01:08:10.579Z,96790.84
2023-02-17T01:10:41.421Z,96809.50
2023-02-17T01:13:08.499Z,96797.94
2023-02-17T01:15:44.923Z,96793.84
2023-02-17T01:18:14.253Z,96805.97
2023-02-17T01:20:41.335Z,96804.28
2023-02-17T01:23:09.146Z,96800.88
2023-02-17T01:25:44.894Z,96793.34
2023-02-17T01:28:18.179Z,96780.16
2023-02-17T01:30:46.687Z,96766.03
2023-02-17T01:33:13.388Z,96783.00
2023-02-17T01:35:39.818Z,96777.44
2023-02-17T01:38:06.348Z,96784.25
2023-02-17T01:40:32.826Z,96770.09
2023-02-17T01:42:59.247Z,96784.06
2023-02-17T01:45:36.463Z,96773.81
2023-02-17T01:48:05.981Z,96799.38
2023-02-17T01:50:37.073Z,96769.56
2023-02-17T01:53:07.454Z,96773.78
2023-02-17T01:55:35.854Z,96776.09
2023-02-17T01:58:07.705Z,96755.25
2023-02-17T02:00:36.087Z,96785.53
2023-02-17T02:03:06.708Z,96780.28
2023-02-17T02:05:33.387Z,96768.41
2023-02-17T02:08:00.059Z,96764.94
2023-02-17T02:10:26.515Z,96746.41
2023-02-17T02:12:53.065Z,96764.00
2023-02-17T02:15:28.177Z,96758.88
2023-02-17T02:18:03.256Z,96765.41
2023-02-17T02:20:41.865Z,96770.38
2023-02-17T02:23:33.315Z,96774.78
2023-02-17T02:26:35.419Z,96776.53
2023-02-17T02:29:26.830Z,96785.38
2023-02-17T02:32:21.228Z,96779.97
2023-02-17T02:34:54.926Z,96767.38
2023-02-17T02:37:32.305Z,96788.47
2023-02-17T02:40:03.710Z,96777.34
2023-02-17T02:42:32.789Z,96760.50
2023-02-17T02:44:59.280Z,96786.25
2023-02-17T02:47:53.483Z,96755.97
2023-02-17T02:50:28.385Z,96767.16
2023-02-17T02:53:03.659Z,96776.28
2023-02-17T02:55:43.914Z,96753.84
2023-02-17T02:58:23.049Z,96753.06
2023-02-17T03:01:05.942Z,96745.50
2023-02-17T03:04:05.007Z,96759.81
2023-02-17T03:06:39.709Z,96745.88
2023-02-17T03:09:12.824Z,96753.59
2023-02-17T03:11:41.251Z,96745.78
2023-02-17T03:14:11.606Z,96754.06
2023-02-17T03:16:40.475Z,96751.19
2023-02-17T03:19:08.597Z,96739.78
2023-02-17T03:21:43.536Z,96732.63
2023-02-17T03:24:10.240Z,96732.09
2023-02-17T03:26:36.787Z,96733.63
2023-02-17T03:29:03.481Z,96741.16
2023-02-17T03:31:30.987Z,96727.69
2023-02-17T03:33:58.151Z,96738.75
2023-02-17T03:36:24.651Z,96717.78
2023-02-17T03:38:51.247Z,96719.50
2023-02-17T03:41:17.937Z,96735.69
2023-02-17T03:43:44.359Z,96713.00
2023-02-17T03:46:15.736Z,96708.00
2023-02-17T03:48:42.849Z,96724.97
2023-02-17T03:51:17.276Z,96721.31
2023-02-17T03:53:44.627Z,96727.22
2023-02-17T03:56:12.121Z,96730.34
2023-02-17T03:58:39.009Z,96735.06
2023-02-17T04:01:06.739Z,96726.06
2023-02-17T04:03:34.215Z,96720.94
2023-02-17T04:06:00.960Z,96708.16
2023-02-17T04:08:28.161Z,96703.50
2023-02-17T04:10:56.794Z,96725.88
2023-02-17T04:13:23.683Z,96703.44
2023-02-17T04:15:50.871Z,96702.94
2023-02-17T04:18:17.897Z,96693.91
2023-02-17T04:20:45.058Z,96714.38
2023-02-17T04:23:11.896Z,96689.34
2023-02-17T04:25:38.375Z,96720.81
2023-02-17T04:28:07.368Z,96716.72
2023-02-17T04:30:34.778Z,96662.13
2023-02-17T04:33:01.817Z,96718.28
2023-02-17T04:35:28.304Z,96704.97
2023-02-17T04:37:55.365Z,96717.94
2023-02-17T04:40:22.421Z,96696.59
2023-02-17T04:42:48.863Z,96705.03
2023-02-17T04:45:15.466Z,96697.88
2023-02-17T04:47:42.088Z,96686.72
2023-02-17T04:50:09.982Z,96708.59
2023-02-17T04:52:36.548Z,96703.50
2023-02-17T04:55:03.957Z,96696.13
2023-02-17T04:57:30.637Z,96695.41
2023-02-17T04:59:57.051Z,96688.47
2023-02-17T05:02:25.475Z,96642.56
2023-02-17T05:04:51.956Z,96680.97
2023-02-17T05:07:18.981Z,96696.31
2023-02-17T05:09:45.466Z,96675.84
2023-02-17T05:12:12.025Z,96676.84
2023-02-17T05:14:38.441Z,96675.53
2023-02-17T05:17:04.911Z,96692.28
2023-02-17T05:19:31.412Z,96662.41
2023-02-17T05:21:57.834Z,96696.00
2023-02-17T05:24:24.351Z,96685.69
2023-02-17T05:26:50.778Z,96680.59
2023-02-17T05:29:17.252Z,96685.53
2023-02-17T05:31:43.842Z,96693.50
2023-02-17T05:34:10.376Z,96673.50
2023-02-17T05:36:36.824Z,96665.94
2023-02-17T05:39:03.335Z,96625.94
2023-02-17T05:41:29.758Z,96679.13
2023-02-17T05:43:56.168Z,96680.75
2023-02-17T05:46:23.114Z,96675.94
2023-02-17T05:48:49.806Z,96675.72
2023-02-17T05:51:19.159Z,96676.44
2023-02-17T05:53:45.670Z,96683.41
2023-02-17T05:56:14.737Z,96678.66
2023-02-17T05:58:41.152Z,96696.09
2023-02-17T06:01:09.452Z,96678.88
2023-02-17T06:03:35.928Z,96683.59
2023-02-17T06:06:02.530Z,96689.31
2023-02-17T06:08:28.968Z,96699.91
2023-02-17T06:10:55.634Z,96705.72
2023-02-17T06:13:22.086Z,96697.53
2023-02-17T06:15:48.777Z,96705.41
2023-02-17T06:18:15.291Z,96705.13
2023-02-17T06:20:42.031Z,96725.75
2023-02-17T06:23:08.525Z,96716.19
2023-02-17T06:25:34.938Z,96708.75
2023-02-17T06:28:01.363Z,96719.28
2023-02-17T06:30:27.855Z,96714.47
2023-02-17T06:32:54.332Z,96722.44
2023-02-17T06:35:20.930Z,96706.75
2023-02-17T06:37:47.381Z,96730.78
2023-02-17T06:40:14.230Z,96716.66
2023-02-17T06:42:40.681Z,96718.44
2023-02-17T06:45:07.907Z,96713.25
2023-02-17T06:47:34.841Z,96702.44
2023-02-17T06:50:01.325Z,96689.84
2023-02-17T06:52:28.144Z,96707.91
2023-02-17T06:54:54.638Z,96714.44
2023-02-17T06:57:21.368Z,96701.63
2023-02-17T06:59:47.826Z,96658.06
2023-02-17T07:02:14.719Z,96705.75
2023-02-17T07:04:42.451Z,96691.81
2023-02-17T07:07:10.249Z,96703.16
2023-02-17T07:09:38.470Z,96690.47
2023-02-17T07:12:05.881Z,96695.25
2023-02-17T07:14:34.470Z,96710.84
2023-02-17T07:17:01.718Z,96696.22
2023-02-17T07:19:28.326Z,96713.97
2023-02-17T07:21:54.872Z,96726.47
2023-02-17T07:24:21.502Z,96733.28
2023-02-17T07:26:48.074Z,96725.94
2023-02-17T07:29:14.652Z,96703.13
2023-02-17T07:31:41.491Z,96728.25
2023-02-17T07:34:08.018Z,96715.03
2023-02-17T07:36:34.768Z,96712.69
2023-02-17T07:39:03.406Z,96718.38
2023-02-17T07:41:30.673Z,96722.66
2023-02-17T07:43:58.566Z,96732.41
2023-02-17T07:46:26.146Z,96730.56
2023-02-17T07:48:52.639Z,96721.56
2023-02-17T07:51:22.223Z,96716.84
2023-02-17T07:53:49.776Z,96729.25
2023-02-17T07:56:18.771Z,96734.88
2023-02-17T07:58:46.181Z,96730.94
2023-02-17T08:01:22.765Z,96748.06
2023-02-17T08:03:50.206Z,96739.09
2023-02-17T08:06:23.852Z,96712.88
2023-02-17T08:09:09.866Z,96744.34
2023-02-17T08:11:55.258Z,96747.28
2023-02-17T08:14:23.394Z,96749.13
2023-02-17T08:16:49.974Z,96743.34
2023-02-17T08:19:16.603Z,96730.66
2023-02-17T08:21:43.198Z,96723.78
2023-02-17T08:24:10.071Z,96748.63
2023-02-17T08:26:36.660Z,96731.44
2023-02-17T08:29:03.282Z,96737.53
2023-02-17T08:31:34.944Z,96749.38
2023-02-17T08:34:04.529Z,96737.47
2023-02-17T08:36:31.172Z,96734.56
2023-02-17T08:38:58.466Z,96721.84
2023-02-17T08:41:30.968Z,96710.47
2023-02-17T08:44:00.690Z,96734.25
2023-02-17T08:46:28.701Z,96747.50
2023-02-17T08:48:56.256Z,96748.84
2023-02-17T08:51:27.832Z,96747.78
2023-02-17T08:53:58.203Z,96735.59
2023-02-17T08:56:26.295Z,96769.13
2023-02-17T08:58:53.662Z,96767.50
2023-02-17T09:01:21.231Z,96770.66
2023-02-17T09:03:49.601Z,96767.94
2023-02-17T09:06:16.811Z,96775.84
2023-02-17T09:08:44.915Z,96765.22
2023-02-17T09:11:15.291Z,96773.22
2023-02-17T09:13:41.775Z,96764.47
2023-02-17T09:16:08.637Z,96760.25
2023-02-17T09:18:35.371Z,96775.38
2023-02-17T09:21:11.892Z,96770.09
2023-02-17T09:23:39.088Z,96779.69
2023-02-17T09:26:08.630Z,96776.53
2023-02-17T09:28:36.210Z,96756.69
2023-02-17T09:31:14.430Z,96767.59
2023-02-17T09:33:42.100Z,96748.06
2023-02-17T09:36:10.784Z,96754.47
2023-02-17T09:38:39.342Z,96752.88
2023-02-17T09:41:34.612Z,96763.75
2023-02-17T09:44:01.920Z,96753.16
2023-02-17T09:47:03.026Z,96768.50
2023-02-17T09:49:39.891Z,96765.09
2023-02-17T09:52:29.424Z,96766.44
2023-02-17T09:55:11.513Z,96776.75
2023-02-17T09:57:51.193Z,96776.53
2023-02-17T10:00:23.962Z,96765.16
2023-02-17T10:03:06.378Z,96761.47
2023-02-17T10:05:42.144Z,96768.31
2023-02-17T10:08:17.405Z,96770.97
2023-02-17T10:10:54.224Z,96751.19
2023-02-17T10:13:23.667Z,96738.72
2023-02-17T10:15:53.345Z,96771.50
2023-02-17T10:18:36.448Z,96749.81
2023-02-17T10:21:07.472Z,96761.44
2023-02-17T10:23:35.045Z,96744.28
2023-02-17T10:26:20.421Z,96755.34
2023-02-17T10:28:55.999Z,96762.41
2023-02-17T10:31:27.100Z,96743.41
2023-02-17T10:34:05.000Z,96758.94
2023-02-17T10:36:44.964Z,96757.25
2023-02-17T10:39:22.895Z,96754.00
2023-02-17T10:41:52.700Z,96750.59
2023-02-17T10:44:23.149Z,96727.91
2023-02-17T10:46:51.640Z,96759.13
2023-02-17T10:49:30.118Z,96757.78
2023-02-17T10:52:11.803Z,96750.50
2023-02-17T10:54:50.408Z,96756.16
2023-02-17T10:57:19.549Z,96726.50
2023-02-17T10:59:47.907Z,96730.84
2023-02-17T11:02:19.420Z,96735.97
2023-02-17T11:04:49.454Z,96728.31
2023-02-17T11:07:18.383Z,96749.03
2023-02-17T11:09:48.816Z,96735.28
2023-02-17T11:12:32.817Z,96734.53
2023-02-17T11:14:59.409Z,96721.84
2023-02-17T11:17:39.399Z,96729.72
2023-02-17T11:20:09.212Z,96726.56
2023-02-17T11:22:45.775Z,96726.25
2023-02-17T11:25:25.086Z,96733.94
2023-02-17T11:27:56.669Z,96727.28
2023-02-17T11:30:24.331Z,96730.41
2023-02-17T11:32:50.928Z,96728.25
2023-02-17T11:35:35.932Z,96708.13
2023-02-17T11:38:04.241Z,96719.78
2023-02-17T11:40:32.725Z,96718.63
2023-02-17T11:43:01.198Z,96693.66
2023-02-17T11:45:49.355Z,96706.72
2023-02-17T11:48:28.584Z,96689.53
2023-02-17T11:51:17.118Z,96686.50
2023-02-17T11:54:17.916Z,96686.44
2023-02-17T11:56:55.206Z,96690.91
2023-02-17T11:59:43.573Z,96700.72
2023-02-17T12:02:18.055Z,96678.53
2023-02-17T12:04:51.450Z,96664.44
2023-02-17T12:07:42.232Z,96663.31
2023-02-17T12:10:16.360Z,96665.25
2023-02-17T12:13:16.077Z,96673.31
2023-02-17T12:15:56.741Z,96677.94
2023-02-17T12:18:44.472Z,96672.97
2023-02-17T12:21:20.071Z,96674.84
2023-02-17T12:24:04.771Z,96675.91
2023-02-17T12:26:48.041Z,96669.84
2023-02-17T12:29:26.516Z,96673.09
2023-02-17T12:32:20.135Z,96666.19
2023-02-17T12:34:59.282Z,96667.38
2023-02-17T12:37:32.053Z,96662.31
2023-02-17T12:40:16.123Z,96660.50
2023-02-17T12:42:53.884Z,96649.31
2023-02-17T12:45:23.841Z,96663.78
2023-02-17T12:47:55.187Z,96670.41
2023-02-17T12:50:27.436Z,96679.97
2023-02-17T12:52:58.551Z,96659.66
2023-02-17T12:55:30.378Z,96665.22
2023-02-17T12:58:01.124Z,96666.09
2023-02-17T13:00:34.835Z,96665.53
2023-02-17T13:03:03.250Z,96680.59
2023-02-17T13:05:47.943Z,96665.28
2023-02-17T13:08:36.280Z,96674.22
2023-02-17T13:11:10.646Z,96658.97
2023-02-17T13:13:37.195Z,96657.72
2023-02-17T13:16:12.306Z,96678.53
2023-02-17T13:18:43.977Z,96668.88
2023-02-17T13:21:33.141Z,96682.41
2023-02-17T13:24:03.708Z,96656.53
2023-02-17T13:26:35.790Z,96675.06
2023-02-17T13:29:11.063Z,96669.03
2023-02-17T13:31:59.155Z,96667.75
2023-02-17T13:34:27.350Z,96655.41
2023-02-17T13:36:54.356Z,96656.28
2023-02-17T13:39:27.416Z,96671.00
2023-02-17T13:41:56.223Z,96649.84
2023-02-17T13:44:40.795Z,96655.06
2023-02-17T13:47:18.341Z,96659.88
2023-02-17T13:49:52.838Z,96664.44
2023-02-17T13:52:24.433Z,96668.47
2023-02-17T13:54:56.257Z,96653.69
2023-02-17T13:57:23.684Z,96642.66
2023-02-17T13:59:50.154Z,96658.38
2023-02-17T14:02:35.178Z,96649.72
2023-02-17T14:05:16.141Z,96664.69
2023-02-17T14:07:42.643Z,96662.13
2023-02-17T14:10:21.571Z,96647.06
2023-02-17T14:12:49.208Z,96668.50
2023-02-17T14:15:22.262Z,96673.25
2023-02-17T14:17:48.908Z,96647.06
2023-02-17T14:20:31.310Z,96673.75
2023-02-17T14:23:11.579Z,96675.09
2023-02-17T14:25:42.484Z,96673.75
2023-02-17T14:28:26.595Z,96679.59
2023-02-17T14:30:53.803Z,96656.88
2023-02-17T14:33:24.135Z,96642.50
2023-02-17T14:36:00.087Z,96671.31
2023-02-17T14:38:35.234Z,96668.94
2023-02-17T14:41:01.742Z,96671.69
2023-02-17T14:43:28.240Z,96674.88
2023-02-17T14:45:55.003Z,96671.47
2023-02-17T14:48:22.024Z,96676.97
2023-02-17T14:50:49.313Z,96680.69
2023-02-17T14:53:29.680Z,96678.03
2023-02-17T14:56:02.099Z,96684.97
2023-02-17T14:58:29.674Z,96683.38
2023-02-17T15:00:56.919Z,96684.75
2023-02-17T15:03:23.605Z,96672.34
2023-02-17T15:05:51.076Z,96686.09
2023-02-17T15:08:26.391Z,96686.28
2023-02-17T15:10:53.200Z,96684.81
2023-02-17T15:13:21.785Z,96692.44
2023-02-17T15:15:49.638Z,96678.75
2023-02-17T15:18:18.722Z,96686.94
2023-02-17T15:20:50.081Z,96687.41
2023-02-17T15:23:18.515Z,96678.66
2023-02-17T15:25:45.601Z,96670.50
2023-02-17T15:28:14.536Z,96668.72
2023-02-17T15:30:41.329Z,96669.25
2023-02-17T15:33:13.238Z,96671.31
2023-02-17T15:35:40.791Z,96658.13
2023-02-17T15:38:11.453Z,96667.28
2023-02-17T15:40:38.010Z,96642.75
2023-02-17T15:43:04.965Z,96645.91
2023-02-17T15:45:33.080Z,96632.78
2023-02-17T15:48:05.061Z,96647.25
2023-02-17T15:50:32.100Z,96644.81
2023-02-17T15:52:58.781Z,96644.03
2023-02-17T15:55:28.186Z,96652.25
2023-02-17T15:57:58.011Z,96650.66
2023-02-17T16:00:31.165Z,96644.34
2023-02-17T16:02:57.703Z,96631.47
2023-02-17T16:05:27.839Z,96652.41
2023-02-17T16:07:55.039Z,96647.13
2023-02-17T16:10:24.416Z,96655.25
2023-02-17T16:12:52.189Z,96650.28
2023-02-17T16:15:21.657Z,96643.41
2023-02-17T16:17:49.001Z,96663.81
2023-02-17T16:20:20.036Z,96641.66
2023-02-17T16:22:47.067Z,96644.50
2023-02-17T16:25:16.840Z,96630.56
2023-02-17T16:27:45.176Z,96631.34
2023-02-17T16:30:17.370Z,96640.63
2023-02-17T16:32:43.908Z,96645.38
2023-02-17T16:35:24.968Z,96662.53
2023-02-17T16:37:53.183Z,96664.44
2023-02-17T16:40:22.546Z,96661.78
2023-02-17T16:42:49.401Z,96676.59
2023-02-17T16:45:17.814Z,96675.31
2023-02-17T16:47:47.156Z,96669.78
2023-02-17T16:50:39.840Z,96673.44
2023-02-17T16:53:10.221Z,96650.75
2023-02-17T16:55:37.173Z,96670.00
2023-02-17T16:58:04.449Z,96668.44
2023-02-17T17:00:33.071Z,96658.44
2023-02-17T17:02:59.706Z,96672.13
2023-02-17T17:05:28.042Z,96680.06
2023-02-17T17:07:54.866Z,96680.09
2023-02-17T17:10:25.185Z,96678.25
2023-02-17T17:12:51.818Z,96657.91
2023-02-17T17:15:19.231Z,96673.75
2023-02-17T17:17:54.656Z,96682.19
2023-02-17T17:20:24.038Z,96665.59
2023-02-17T17:22:51.403Z,96682.22
2023-02-17T17:25:19.960Z,96677.75
2023-02-17T17:27:46.477Z,96678.50
2023-02-17T17:30:17.415Z,96680.63
2023-02-17T17:32:43.912Z,96663.50
2023-02-17T17:35:10.361Z,96673.75
2023-02-17T17:37:39.138Z,96701.78
2023-02-17T17:40:07.176Z,96699.41
2023-02-17T17:42:33.689Z,96685.91
2023-02-17T17:45:00.218Z,96679.06
2023-02-17T17:47:30.092Z,96684.59
2023-02-17T17:49:56.796Z,96697.00
2023-02-17T17:52:24.129Z,96690.41
2023-02-17T17:54:50.817Z,96680.91
2023-02-17T17:57:17.276Z,96676.94
2023-02-17T17:59:43.756Z,96686.72
2023-02-17T18:02:10.193Z,96667.44
2023-02-17T18:04:36.718Z,96651.59
2023-02-17T18:07:03.362Z,96657.94
2023-02-17T18:09:35.059Z,96659.50
2023-02-17T18:12:07.229Z,96676.41
2023-02-17T18:14:36.399Z,96664.78
2023-02-17T18:17:03.159Z,96662.69
2023-02-17T18:19:31.071Z,96655.53
2023-02-17T18:21:57.760Z,96642.34
2023-02-17T18:24:24.172Z,96642.63
2023-02-17T18:26:52.199Z,96658.19
2023-02-17T18:29:19.236Z,96659.53
2023-02-17T18:31:45.828Z,96669.81
2023-02-17T18:34:12.846Z,96685.13
2023-02-17T18:36:39.320Z,96671.13
2023-02-17T18:39:05.789Z,96679.03
2023-02-17T18:41:34.158Z,96689.63
2023-02-17T18:44:03.060Z,96681.94
2023-02-17T18:46:29.583Z,96664.00
2023-02-17T18:48:56.750Z,96665.84
2023-02-17T18:51:23.902Z,96660.81
2023-02-17T18:53:51.221Z,96675.34
2023-02-17T18:56:21.525Z,96689.09
2023-02-17T18:58:49.804Z,96662.66
2023-02-17T19:01:35.326Z,96691.19
2023-02-17T19:04:02.227Z,96666.91
2023-02-17T19:06:31.811Z,96691.97
2023-02-17T19:09:00.198Z,96693.56
2023-02-17T19:11:27.241Z,96683.81
2023-02-17T19:13:53.711Z,96666.38
2023-02-17T19:16:27.054Z,96685.41
2023-02-17T19:18:54.669Z,96682.22
2023-02-17T19:21:21.920Z,96674.31
2023-02-17T19:23:49.728Z,96684.84
2023-02-17T19:26:17.344Z,96687.25
2023-02-17T19:28:45.091Z,96689.63
2023-02-17T19:31:15.248Z,96681.72
2023-02-17T19:33:42.997Z,96681.69
2023-02-17T19:36:12.332Z,96666.13
2023-02-17T19:38:39.385Z,96648.69
2023-02-17T19:41:08.521Z,96657.41
2023-02-17T19:43:35.065Z,96675.34
2023-02-17T19:46:01.549Z,96679.31
2023-02-17T19:48:28.119Z,96674.84
2023-02-17T19:51:06.137Z,96666.09
2023-02-17T19:53:33.282Z,96657.41
2023-02-17T19:56:16.680Z,96697.00
2023-02-17T19:58:44.328Z,96662.66
2023-02-17T20:01:17.394Z,96683.81
2023-02-17T20:03:44.550Z,96672.72
2023-02-17T20:06:23.372Z,96695.16
2023-02-17T20:08:57.762Z,96697.00
2023-02-17T20:11:25.243Z,96693.84
2023-02-17T20:13:52.178Z,96676.13
2023-02-17T20:16:18.785Z,96704.13
2023-02-17T20:18:47.862Z,96688.78
2023-02-17T20:21:26.303Z,96706.50
2023-02-17T20:23:52.806Z,96711.78
2023-02-17T20:26:22.552Z,96718.13
2023-02-17T20:28:49.630Z,96714.16
2023-02-17T20:31:16.819Z,96728.41
2023-02-17T20:33:43.505Z,96739.25
2023-02-17T20:36:11.714Z,96756.41
2023-02-17T20:38:39.551Z,96762.72
2023-02-17T20:41:07.934Z,96752.44
2023-02-17T20:43:37.544Z,96765.94
2023-02-17T20:46:04.295Z,96755.66
2023-02-17T20:48:30.740Z,96769.13
2023-02-17T20:50:58.634Z,96768.31
2023-02-17T20:53:25.758Z,96750.88
2023-02-17T20:55:52.628Z,96765.19
2023-02-17T20:58:19.641Z,96770.47
2023-02-17T21:00:46.304Z,96755.41
2023-02-17T21:03:12.887Z,96762.53
2023-02-17T21:05:39.474Z,96772.03
2023-02-17T21:08:06.232Z,96769.91
2023-02-17T21:10:33.336Z,96771.53
2023-02-17T21:12:59.799Z,96764.13
2023-02-17T21:15:27.242Z,96768.34
2023-02-17T21:17:53.764Z,96769.66
2023-02-17T21:20:21.215Z,96768.63
2023-02-17T21:22:48.233Z,96759.34
2023-02-17T21:25:14.672Z,96747.22
2023-02-17T21:27:41.153Z,96754.59
2023-02-17T21:30:09.351Z,96756.72
2023-02-17T21:32:35.929Z,96745.06
2023-02-17T21:35:02.485Z,96756.97
2023-02-17T21:37:28.909Z,96770.44
2023-02-17T21:39:55.415Z,96750.63
2023-02-17T21:42:43.191Z,96749.31
2023-02-17T21:45:11.127Z,96754.34
2023-02-17T21:47:37.571Z,96754.88
2023-02-17T21:50:04.512Z,96766.75
2023-02-17T21:52:31.000Z,96769.66
2023-02-17T21:54:57.503Z,96767.53
2023-02-17T21:57:23.920Z,96746.69
2023-02-17T21:59:50.515Z,96785.00
2023-02-17T22:02:16.948Z,96766.75
2023-02-17T22:04:43.418Z,96753.00
2023-02-17T22:07:10.819Z,96777.06
2023-02-17T22:09:37.504Z,96759.63
2023-02-17T22:12:03.968Z,96756.72
2023-02-17T22:14:30.402Z,96768.63
2023-02-17T22:16:57.425Z,96760.16
2023-02-17T22:19:24.990Z,96780.50
2023-02-17T22:21:51.958Z,96772.84
2023-02-17T22:24:20.756Z,96764.91
2023-02-17T22:26:48.124Z,96765.97
2023-02-17T22:29:14.708Z,96754.34
2023-02-17T22:31:41.465Z,96758.81
2023-02-17T22:34:09.923Z,96777.31
2023-02-17T22:36:37.519Z,96770.72
2023-02-17T22:39:06.220Z,96783.41
2023-02-17T22:41:34.050Z,96764.09
2023-02-17T22:44:01.772Z,96781.28
2023-02-17T22:46:28.701Z,96772.84
2023-02-17T22:48:55.887Z,96786.84
2023-02-17T22:51:28.527Z,96793.19
2023-02-17T22:53:55.262Z,96772.03
2023-02-17T22:56:22.201Z,96778.13
2023-02-17T22:58:55.235Z,96771.75
2023-02-17T23:01:22.114Z,96777.88
2023-02-17T23:03:54.422Z,96781.56
2023-02-17T23:06:35.477Z,96792.41
2023-02-17T23:09:02.838Z,96771.00
2023-02-17T23:11:57.529Z,96779.97
2023-02-17T23:14:27.879Z,96798.19
2023-02-17T23:16:57.942Z,96800.56
2023-02-17T23:19:24.800Z,96805.06
2023-02-17T23:21:54.588Z,96802.44
2023-02-17T23:24:22.485Z,96800.31
2023-02-17T23:26:49.593Z,96805.59
2023-02-17T23:29:17.093Z,96798.97
2023-02-17T23:31:44.038Z,96800.59
2023-02-17T23:34:12.868Z,96790.25
2023-02-17T23:36:40.474Z,96781.75
2023-02-17T23:39:07.439Z,96795.78
2023-02-17T23:41:38.304Z,96789.44
2023-02-17T23:44:07.450Z,96791.56
2023-02-17T23:46:34.422Z,96800.25
2023-02-17T23:49:01.069Z,96781.50
2023-02-17T23:51:27.701Z,96806.34
2023-02-17T23:53:54.142Z,96799.97
2023-02-17T23:56:24.020Z,96789.63
2023-02-17T23:58:50.702Z,96807.13
